Time;durP1;ratioP1;P1;durP2;ratioP2;P2;SDS_P1;SDS_P2;PMS_P1;PMS_P2;Temp;Humidity;BMP_temperature;BMP_pressure;BME280_temperature;BME280_humidity;BME280_pressure;Samples;Min_cycle;Max_cycle;Signal;HPM_P1;HPM_P2
2022/12/16 00:01:26;;;;;;;24.00;11.98;;;;;;;5.55;100.00;96990.16;5063473;28;20044;-52
2022/12/16 00:03:55;;;;;;;28.58;14.50;;;;;;;5.46;100.00;97000.44;5064513;28;20044;-52
2022/12/16 00:06:25;;;;;;;27.52;12.00;;;;;;;5.57;100.00;97002.44;5064818;28;20132;-53
2022/12/16 00:08:52;;;;;;;24.40;11.73;;;;;;;5.73;100.00;96994.34;5062814;28;20130;-52
2022/12/16 00:11:20;;;;;;;21.83;11.40;;;;;;;5.55;100.00;96965.44;5064513;28;20049;-52
2022/12/16 00:13:47;;;;;;;17.38;10.05;;;;;;;5.84;100.00;96990.06;4869529;28;5001076;-53
2022/12/16 00:16:15;;;;;;;20.33;12.18;;;;;;;5.84;100.00;96962.56;5064637;28;20052;-55
2022/12/16 00:18:43;;;;;;;20.48;12.20;;;;;;;6.12;100.00;96991.00;5064166;28;20048;-54
2022/12/16 00:21:09;;;;;;;22.20;13.10;;;;;;;5.94;100.00;96937.41;5064302;28;20054;-53
2022/12/16 00:23:38;;;;;;;19.67;11.00;;;;;;;6.29;100.00;96982.53;5062799;28;20075;-52
2022/12/16 00:26:05;;;;;;;25.98;13.65;;;;;;;5.82;100.00;96981.34;5062816;28;20048;-52
2022/12/16 00:28:31;;;;;;;24.00;13.82;;;;;;;5.26;100.00;96995.81;5064201;28;20147;-52
2022/12/16 00:30:58;;;;;;;37.72;18.08;;;;;;;5.15;100.00;96956.19;5064353;28;20052;-53
2022/12/16 00:33:27;;;;;;;34.90;17.27;;;;;;;5.62;100.00;96988.50;5062947;28;20088;-54
2022/12/16 00:35:54;;;;;;;36.75;18.23;;;;;;;5.50;100.00;96984.91;5064393;28;20117;-53
2022/12/16 00:38:23;;;;;;;42.45;19.55;;;;;;;5.56;100.00;96984.38;5064136;28;20562;-52
2022/12/16 00:40:49;;;;;;;33.47;18.48;;;;;;;5.59;100.00;96985.63;5063057;28;20052;-54
2022/12/16 00:43:18;;;;;;;33.38;17.60;;;;;;;5.73;100.00;96972.38;5064321;28;20577;-53
2022/12/16 00:45:46;;;;;;;31.02;17.02;;;;;;;5.91;100.00;96979.31;5062822;28;20106;-52
2022/12/16 00:48:13;;;;;;;30.63;17.02;;;;;;;5.99;100.00;96981.16;5063879;28;20051;-53
2022/12/16 00:50:40;;;;;;;31.35;16.55;;;;;;;6.12;100.00;96969.00;5064040;28;20056;-52
2022/12/16 00:53:07;;;;;;;36.40;19.98;;;;;;;6.01;100.00;96946.66;5063639;28;20110;-53
2022/12/16 00:55:34;;;;;;;40.85;21.80;;;;;;;6.34;100.00;96970.50;5062293;28;20048;-52
2022/12/16 00:58:00;;;;;;;29.25;15.98;;;;;;;5.77;100.00;96990.56;5063740;28;20654;-52
2022/12/16 01:00:27;;;;;;;21.50;12.93;;;;;;;5.79;100.00;96916.03;5062352;28;20082;-51
2022/12/16 01:02:54;;;;;;;21.25;12.38;;;;;;;5.89;100.00;96932.13;5063808;28;20435;-53
2022/12/16 01:05:25;;;;;;;21.25;12.13;;;;;;;5.83;100.00;96906.00;5063516;28;20143;-54
2022/12/16 01:07:53;;;;;;;19.92;11.88;;;;;;;6.20;100.00;96981.06;5062515;28;20135;-52
2022/12/16 01:10:21;;;;;;;21.00;11.93;;;;;;;6.13;100.00;96987.13;5063596;28;20126;-53
2022/12/16 01:12:48;;;;;;;20.98;13.30;;;;;;;6.11;100.00;96989.41;5063624;28;20155;-53
2022/12/16 01:15:17;;;;;;;24.95;12.98;;;;;;;5.80;100.00;96945.13;5063708;28;20060;-52
2022/12/16 01:17:43;;;;;;;27.48;14.15;;;;;;;6.15;100.00;96973.81;5064241;28;20056;-52
2022/12/16 01:20:10;;;;;;;22.30;13.43;;;;;;;6.16;100.00;96975.44;5063630;28;20145;-52
2022/12/16 01:22:37;;;;;;;26.83;14.85;;;;;;;6.13;100.00;96976.91;5062287;28;20048;-52
2022/12/16 01:25:04;;;;;;;26.00;14.82;;;;;;;6.25;100.00;96978.88;5063305;28;20041;-52
2022/12/16 01:27:30;;;;;;;26.42;14.75;;;;;;;6.44;100.00;96975.53;5064339;28;20053;-52
2022/12/16 01:29:57;;;;;;;30.08;15.70;;;;;;;6.08;100.00;96982.66;5068129;28;20048;-52
2022/12/16 01:32:24;;;;;;;38.10;18.75;;;;;;;5.60;100.00;96918.53;5067049;28;20139;-53
2022/12/16 01:34:52;;;;;;;35.15;18.98;;;;;;;6.14;100.00;96988.72;5067495;28;20109;-54
2022/12/16 01:37:22;;;;;;;35.47;18.90;;;;;;;6.08;100.00;96987.34;5067031;28;20141;-54
2022/12/16 01:39:49;;;;;;;30.65;16.45;;;;;;;5.96;100.00;96987.31;5066108;28;20404;-53
2022/12/16 01:42:19;;;;;;;28.30;15.50;;;;;;;5.66;100.00;96994.91;5066951;28;20585;-54
2022/12/16 01:44:48;;;;;;;28.00;15.82;;;;;;;5.75;100.00;96992.84;5065973;28;20040;-54
2022/12/16 01:47:25;;;;;;;26.60;14.93;;;;;;;5.73;100.00;96955.88;5066687;28;20127;-54
2022/12/16 01:49:51;;;;;;;26.55;15.20;;;;;;;5.92;100.00;96991.91;5065985;28;20088;-54
2022/12/16 01:52:29;;;;;;;23.02;14.65;;;;;;;5.90;100.00;96994.19;5065948;28;20064;-52
2022/12/16 01:55:01;;;;;;;24.48;12.90;;;;;;;5.89;100.00;96970.59;5067179;28;20101;-55
2022/12/16 01:57:55;;;;;;;21.25;12.55;;;;;;;6.00;100.00;96977.25;5065661;28;20148;-55
2022/12/16 02:00:21;;;;;;;22.63;14.43;;;;;;;6.04;100.00;96972.66;5067067;28;20164;-53
2022/12/16 02:02:50;;;;;;;25.27;14.52;;;;;;;5.68;100.00;96903.88;5066805;28;20053;-52
2022/12/16 02:05:20;;;;;;;23.90;14.40;;;;;;;6.15;100.00;96969.13;5065578;28;20040;-52
2022/12/16 02:08:01;;;;;;;31.13;15.18;;;;;;;6.38;100.00;96960.41;5065568;28;20055;-53
2022/12/16 02:10:43;;;;;;;27.80;15.88;;;;;;;6.45;100.00;96960.63;5052667;28;20541;-53
2022/12/16 02:13:34;;;;;;;33.45;18.27;;;;;;;6.54;100.00;96959.38;5066883;28;20232;-53
2022/12/16 02:16:18;;;;;;;37.15;19.95;;;;;;;6.82;100.00;96960.22;5066567;28;20060;-52
2022/12/16 02:19:12;;;;;;;24.80;13.25;;;;;;;5.98;100.00;96952.84;5065908;28;20056;-53
2022/12/16 02:21:51;;;;;;;27.42;14.25;;;;;;;5.69;100.00;96950.25;5066827;28;20164;-53
2022/12/16 02:24:54;;;;;;;26.20;14.52;;;;;;;5.59;100.00;96942.47;5066895;28;20052;-53
2022/12/16 02:27:33;;;;;;;23.75;14.75;;;;;;;5.48;100.00;96940.50;5065804;28;20147;-53
2022/12/16 02:30:21;;;;;;;27.60;15.43;;;;;;;5.80;100.00;96934.16;5066763;28;20168;-52
2022/12/16 02:32:57;;;;;;;27.52;14.15;;;;;;;6.00;100.00;96933.25;5066112;28;20498;-53
2022/12/16 02:35:23;;;;;;;26.30;14.80;;;;;;;6.13;100.00;96938.41;5065714;28;20510;-53
2022/12/16 02:38:07;;;;;;;23.10;12.60;;;;;;;6.34;100.00;96932.00;5065951;28;21121;-54
2022/12/16 02:40:43;;;;;;;23.25;13.15;;;;;;;6.38;100.00;96925.44;5065342;28;20503;-53
2022/12/16 02:43:21;;;;;;;25.20;15.27;;;;;;;6.48;100.00;96913.94;5065924;28;20530;-52
2022/12/16 02:45:48;;;;;;;24.45;15.68;;;;;;;6.49;100.00;96921.06;5065870;28;20148;-53
2022/12/16 02:48:15;;;;;;;26.27;16.55;;;;;;;6.59;100.00;96917.81;5065759;28;20048;-52
2022/12/16 02:50:48;;;;;;;33.97;18.63;;;;;;;6.34;100.00;96858.50;5066284;28;20141;-51
2022/12/16 02:53:15;;;;;;;36.90;21.33;;;;;;;6.61;100.00;96888.03;5065950;28;20560;-52
2022/12/16 02:56:10;;;;;;;49.00;27.80;;;;;;;6.92;100.00;96921.19;5065382;28;20109;-53
2022/12/16 02:58:51;;;;;;;45.65;25.35;;;;;;;7.11;100.00;96929.59;5065916;28;20060;-52
2022/12/16 03:01:43;;;;;;;48.80;26.80;;;;;;;7.22;100.00;96938.94;5064673;28;20118;-54
2022/12/16 03:04:14;;;;;;;36.67;21.42;;;;;;;6.93;100.00;96917.28;5065989;28;20053;-53
2022/12/16 03:06:46;;;;;;;36.70;23.00;;;;;;;7.07;100.00;96936.97;5065480;28;20143;-54
2022/12/16 03:09:16;;;;;;;39.25;22.05;;;;;;;7.19;100.00;96925.88;5065798;28;20137;-54
2022/12/16 03:11:45;;;;;;;38.88;21.70;;;;;;;7.38;100.00;96934.28;5065574;28;20056;-54
2022/12/16 03:14:15;;;;;;;34.20;21.67;;;;;;;7.32;100.00;96901.81;5064408;28;20511;-53
2022/12/16 03:16:44;;;;;;;29.70;17.58;;;;;;;7.26;100.00;96926.09;5065445;28;20499;-53
2022/12/16 03:19:12;;;;;;;32.45;18.25;;;;;;;7.17;100.00;96919.94;5056929;28;20058;-53
2022/12/16 03:21:49;;;;;;;27.45;15.52;;;;;;;7.14;100.00;96941.88;5063760;28;20098;-53
2022/12/16 03:24:16;;;;;;;25.35;14.50;;;;;;;7.24;100.00;96939.41;5065428;28;20580;-53
2022/12/16 03:26:52;;;;;;;25.42;13.93;;;;;;;7.27;100.00;96955.22;5065069;28;20060;-52
2022/12/16 03:29:40;;;;;;;25.15;13.50;;;;;;;7.24;100.00;96950.41;5065419;28;20106;-53
2022/12/16 03:32:32;;;;;;;18.13;11.05;;;;;;;7.17;100.00;96953.00;5064850;28;20056;-53
2022/12/16 03:35:09;;;;;;;16.95;10.88;;;;;;;7.17;100.00;96944.72;5064828;28;20500;-53
2022/12/16 03:37:38;;;;;;;564.65;197.75;;;;;;;6.80;100.00;96915.72;5063517;28;20496;-53
2022/12/16 03:40:07;;;;;;;191.32;67.68;;;;;;;7.18;100.00;96954.59;5065103;28;20052;-52
2022/12/16 03:42:35;;;;;;;52.40;22.48;;;;;;;6.72;100.00;96883.63;5063280;28;20155;-52
2022/12/16 03:45:05;;;;;;;31.38;15.65;;;;;;;6.91;100.00;96925.09;5063347;28;20084;-52
2022/12/16 03:47:31;;;;;;;26.15;15.25;;;;;;;7.13;100.00;96954.03;5064664;28;20129;-54
2022/12/16 03:49:58;;;;;;;19.02;11.48;;;;;;;6.97;100.00;96929.19;5064611;28;20139;-52
2022/12/16 03:52:24;;;;;;;23.75;12.18;;;;;;;7.05;100.00;96947.50;5064501;28;20087;-54
2022/12/16 03:54:51;;;;;;;22.75;12.27;;;;;;;7.03;100.00;96949.84;5064654;28;20056;-53
2022/12/16 03:57:18;;;;;;;21.38;12.60;;;;;;;7.10;100.00;96955.53;5064597;28;20177;-52
2022/12/16 03:59:44;;;;;;;23.23;14.55;;;;;;;7.08;100.00;96946.81;5063191;28;20052;-52
2022/12/16 04:02:11;;;;;;;20.00;12.32;;;;;;;7.20;100.00;96968.81;5064123;28;20056;-54
2022/12/16 04:04:38;;;;;;;21.30;11.32;;;;;;;6.80;100.00;96907.44;5064996;28;20601;-51
2022/12/16 04:07:20;;;;;;;17.95;11.07;;;;;;;7.32;100.00;96993.56;5064422;28;20147;-52
2022/12/16 04:09:48;;;;;;;19.25;11.40;;;;;;;7.28;100.00;96973.38;5064958;28;20056;-54
2022/12/16 04:26:13;;;;;;;19.42;11.52;;;;;;;6.72;100.00;96911.16;5064980;28;20122;-53
2022/12/16 04:28:40;;;;;;;22.33;12.25;;;;;;;6.70;100.00;96910.69;5064336;28;20045;-53
2022/12/16 04:31:07;;;;;;;18.20;11.88;;;;;;;7.19;100.00;96958.94;5064348;28;20092;-54
